LGMT

Mytilene International Airport

Mytilene, Greece
TAF LGMT 192300Z 2000/2009 33010KT 9999 FEW020
Issued Valid From Valid To
Sep-19 @ 23:00 UTC
(2 hours ago)
Sep-20 @ 00:00 UTC
(43 minutes ago)
Sep-20 @ 09:00 UTC
(in 8 hours)
Sep-20 @ 00:00 to Sep-20 @ 09:00
TAF LGMT 192300Z 2000/2009 33010KT 9999 FEW020
Wind Visibility Clouds
330° at 10 knots 10,000+ meters
  • Few at 2,000' AGL
TAF LGMT 192300Z 2000/2009 33010KT 9999 FEW020
Issued Sep-19 @ 23:00 UTC
(2 hours ago)
Valid From Sep-20 @ 00:00 UTC
(43 minutes ago)
Valid To Sep-20 @ 09:00 UTC
(in 8 hours)
Sep-20 @ 00:00 - Sep-20 @ 09:00
Wind Visibility
330° at 10 knots 10,000+ meters
Clouds
  • Few at 2,000' AGL